Time;durP1;ratioP1;P1;durP2;ratioP2;P2;SDS_P1;SDS_P2;PMS_P1;PMS_P2;Temp;Humidity;BMP_temperature;BMP_pressure;BME280_temperature;BME280_humidity;BME280_pressure;Samples;Min_cycle;Max_cycle;Signal;HPM_P1;HPM_P2
2022/01/04 00:01:15;;;;;;;1.23;0.83;;;11.90;99.90;;;;;;4997317;28;20846;-62
2022/01/04 00:03:43;;;;;;;1.93;1.30;;;12.00;99.90;;;;;;4997358;28;20500;-63
2022/01/04 00:06:09;;;;;;;1.50;1.37;;;12.00;99.90;;;;;;4995817;28;20174;-63
2022/01/04 00:08:35;;;;;;;2.37;1.20;;;12.00;99.90;;;;;;4997428;28;20403;-63
2022/01/04 00:11:14;;;;;;;1.30;1.20;;;12.00;99.90;;;;;;4997150;28;20457;-62
2022/01/04 00:13:39;;;;;;;1.63;1.30;;;11.90;99.90;;;;;;4997429;28;20149;-62
2022/01/04 00:16:07;;;;;;;1.23;1.13;;;12.00;99.90;;;;;;4997276;28;20908;-62
2022/01/04 00:18:33;;;;;;;1.87;1.00;;;11.90;99.90;;;;;;4997046;28;20778;-62
2022/01/04 00:20:59;;;;;;;1.20;1.00;;;12.00;99.90;;;;;;4996944;28;20433;-63
2022/01/04 00:23:25;;;;;;;2.70;1.20;;;11.90;99.90;;;;;;4996894;28;20780;-61
2022/01/04 00:25:51;;;;;;;1.80;1.50;;;11.80;99.90;;;;;;4997093;28;20493;-62
2022/01/04 00:28:16;;;;;;;3.23;1.30;;;11.90;99.90;;;;;;4996881;28;20171;-63
2022/01/04 00:30:42;;;;;;;0.97;0.90;;;11.90;99.90;;;;;;4996622;28;20561;-62
2022/01/04 00:33:09;;;;;;;1.20;1.10;;;11.90;99.90;;;;;;4996922;28;20227;-64
2022/01/04 00:35:35;;;;;;;1.57;1.40;;;11.80;99.90;;;;;;4996699;28;20161;-62
2022/01/04 00:38:01;;;;;;;1.30;1.07;;;11.70;99.90;;;;;;4996544;28;20861;-63
2022/01/04 00:40:27;;;;;;;2.63;1.40;;;11.70;99.90;;;;;;4996562;28;20223;-63
2022/01/04 00:42:55;;;;;;;1.40;0.90;;;11.80;99.90;;;;;;4995451;28;20424;-62
2022/01/04 00:45:22;;;;;;;1.10;1.00;;;11.80;99.90;;;;;;4996562;28;20167;-62
2022/01/04 00:50:19;;;;;;;1.43;1.10;;;11.90;99.90;;;;;;4995257;28;20447;-62
2022/01/04 00:52:45;;;;;;;1.73;1.17;;;11.80;99.90;;;;;;4996828;28;20412;-63
2022/01/04 00:55:11;;;;;;;1.10;1.00;;;11.90;99.90;;;;;;4996496;28;20407;-63
2022/01/04 00:57:36;;;;;;;1.70;0.93;;;11.90;99.90;;;;;;4996390;28;20176;-62
2022/01/04 01:00:05;;;;;;;1.30;1.10;;;12.00;99.90;;;;;;4996303;28;20177;-62
2022/01/04 01:02:30;;;;;;;3.73;1.57;;;12.00;99.90;;;;;;4996443;28;20172;-62
2022/01/04 01:04:56;;;;;;;2.80;1.10;;;12.00;99.90;;;;;;4996122;28;20475;-62
2022/01/04 01:07:22;;;;;;;3.63;1.43;;;11.90;99.90;;;;;;4996640;28;20172;-62
2022/01/04 01:12:32;;;;;;;1.40;1.10;;;11.90;99.90;;;;;;4996620;28;20169;-62
2022/01/04 01:14:57;;;;;;;2.67;1.10;;;11.90;99.90;;;;;;4995942;28;20487;-63
2022/01/04 01:17:23;;;;;;;1.63;1.30;;;12.00;99.90;;;;;;4996084;28;20170;-63
2022/01/04 01:19:50;;;;;;;2.90;1.20;;;11.90;99.90;;;;;;4996260;28;20169;-63
2022/01/04 01:22:16;;;;;;;1.63;1.23;;;11.90;99.90;;;;;;4995956;28;20191;-63
2022/01/04 01:24:41;;;;;;;2.30;1.00;;;11.90;99.90;;;;;;4995917;28;20409;-62
2022/01/04 01:27:07;;;;;;;1.10;0.90;;;11.90;99.90;;;;;;4995941;28;20177;-63
2022/01/04 01:29:32;;;;;;;2.00;1.30;;;11.80;99.90;;;;;;4996036;28;20324;-62
2022/01/04 01:31:58;;;;;;;1.23;1.10;;;11.90;99.90;;;;;;4995384;28;20574;-62
2022/01/04 01:34:23;;;;;;;1.80;1.40;;;11.90;99.90;;;;;;4995516;28;20250;-62
2022/01/04 01:36:50;;;;;;;1.57;1.30;;;11.80;99.90;;;;;;4995586;28;20175;-62
2022/01/04 01:39:16;;;;;;;2.70;1.30;;;12.00;99.90;;;;;;4995390;28;20183;-62
2022/01/04 01:41:41;;;;;;;2.03;1.10;;;12.00;99.90;;;;;;4994235;28;20549;-62
2022/01/04 01:44:07;;;;;;;2.03;1.40;;;12.10;99.90;;;;;;4995362;28;20475;-62
2022/01/04 01:46:33;;;;;;;1.47;1.30;;;12.00;99.90;;;;;;4995350;28;20177;-62
2022/01/04 01:48:58;;;;;;;1.90;1.30;;;11.90;99.90;;;;;;4996097;28;20196;-62
2022/01/04 01:51:27;;;;;;;1.40;1.30;;;11.90;99.90;;;;;;4995220;28;20543;-62
2022/01/04 01:53:53;;;;;;;2.10;1.40;;;11.90;99.90;;;;;;4995186;28;20165;-62
2022/01/04 01:56:19;;;;;;;1.90;1.40;;;11.90;99.90;;;;;;4995514;28;20468;-62
2022/01/04 01:58:44;;;;;;;2.00;1.30;;;11.70;99.90;;;;;;4995542;28;20602;-61
2022/01/04 02:01:11;;;;;;;1.40;1.30;;;11.60;99.90;;;;;;4997489;28;20216;-62
2022/01/04 02:03:38;;;;;;;1.80;1.57;;;11.70;99.90;;;;;;4998963;28;20196;-62
2022/01/04 02:06:03;;;;;;;1.60;1.50;;;11.70;99.90;;;;;;4998917;28;20486;-62
2022/01/04 02:08:29;;;;;;;1.77;1.67;;;11.60;99.90;;;;;;4998818;28;20506;-62
2022/01/04 02:10:57;;;;;;;1.90;1.27;;;11.60;99.90;;;;;;4998485;28;20204;-62
2022/01/04 02:13:24;;;;;;;1.73;1.30;;;11.60;99.90;;;;;;4999625;28;20226;-62
2022/01/04 02:15:51;;;;;;;1.73;1.30;;;11.50;99.90;;;;;;4994938;28;20800;-63
2022/01/04 02:18:16;;;;;;;1.77;1.20;;;11.60;99.90;;;;;;4995513;28;20852;-63
2022/01/04 02:20:42;;;;;;;1.93;1.60;;;11.60;99.90;;;;;;4994769;28;20436;-62
2022/01/04 02:23:08;;;;;;;1.80;1.70;;;11.60;99.90;;;;;;4994929;28;20180;-62
2022/01/04 02:25:33;;;;;;;2.00;1.60;;;11.60;99.90;;;;;;4994960;28;20412;-61
2022/01/04 02:28:00;;;;;;;1.57;1.37;;;11.60;99.90;;;;;;4995162;28;20285;-62
2022/01/04 02:30:25;;;;;;;1.57;1.47;;;11.80;99.90;;;;;;4994698;28;20609;-62
2022/01/04 02:32:51;;;;;;;2.17;1.43;;;11.70;99.90;;;;;;4994844;28;20504;-62
2022/01/04 02:35:21;;;;;;;2.00;1.80;;;11.80;99.90;;;;;;4994723;28;20478;-60
2022/01/04 02:37:47;;;;;;;2.07;1.60;;;11.70;99.90;;;;;;4994978;28;20187;-62
2022/01/04 02:40:14;;;;;;;4.40;1.80;;;11.50;99.90;;;;;;4996653;28;20437;-62
2022/01/04 02:42:40;;;;;;;1.90;1.70;;;11.60;99.90;;;;;;4998696;28;20416;-63
2022/01/04 02:45:06;;;;;;;2.13;1.83;;;11.70;99.90;;;;;;4998872;28;20411;-62
2022/01/04 02:47:32;;;;;;;3.20;2.00;;;11.70;99.90;;;;;;4997895;28;20412;-63
2022/01/04 02:49:58;;;;;;;1.70;1.53;;;11.70;99.90;;;;;;4997057;28;20440;-62
2022/01/04 02:52:23;;;;;;;2.00;1.80;;;11.90;99.90;;;;;;4998644;28;20419;-62
2022/01/04 02:54:49;;;;;;;2.30;1.80;;;12.00;99.90;;;;;;4998560;28;20166;-61
2022/01/04 02:57:14;;;;;;;2.20;2.00;;;12.00;99.90;;;;;;4998111;28;20183;-62
2022/01/04 02:59:40;;;;;;;1.93;1.73;;;11.90;99.90;;;;;;4995347;28;20173;-62
2022/01/04 03:02:06;;;;;;;4.53;1.90;;;12.00;99.90;;;;;;4994090;28;20180;-63
2022/01/04 03:04:31;;;;;;;2.57;2.00;;;12.10;99.90;;;;;;4994501;28;20292;-62
2022/01/04 03:06:57;;;;;;;1.97;1.37;;;12.20;99.90;;;;;;4994233;28;20176;-63
2022/01/04 03:09:23;;;;;;;2.50;1.60;;;12.20;99.90;;;;;;4994145;28;20173;-63
2022/01/04 03:11:49;;;;;;;3.10;2.10;;;12.20;99.90;;;;;;4993340;28;20546;-62
2022/01/04 03:14:14;;;;;;;2.80;1.70;;;12.10;99.90;;;;;;4993812;28;20169;-62
2022/01/04 03:16:40;;;;;;;3.17;1.60;;;11.90;99.90;;;;;;4994163;28;20175;-63
2022/01/04 03:19:07;;;;;;;1.90;1.70;;;11.90;99.90;;;;;;4993782;28;20180;-61
2022/01/04 03:21:34;;;;;;;2.20;2.00;;;11.90;99.90;;;;;;4993800;28;20189;-63
2022/01/04 03:24:00;;;;;;;2.10;1.70;;;12.10;99.90;;;;;;4994056;28;20400;-63
2022/01/04 03:26:25;;;;;;;2.50;1.70;;;12.10;99.90;;;;;;4993843;28;20814;-63
2022/01/04 03:28:51;;;;;;;2.13;1.93;;;12.20;99.90;;;;;;4993827;28;20542;-63
2022/01/04 03:31:17;;;;;;;2.00;1.77;;;12.10;99.90;;;;;;4993929;28;20212;-62
2022/01/04 03:33:43;;;;;;;2.77;1.70;;;12.20;99.90;;;;;;4994137;28;20508;-62
2022/01/04 03:36:08;;;;;;;2.30;1.90;;;12.20;99.90;;;;;;4993973;28;20165;-62
2022/01/04 03:38:34;;;;;;;1.73;1.47;;;12.10;99.90;;;;;;4993884;28;20411;-62
2022/01/04 03:41:00;;;;;;;3.03;1.43;;;12.10;99.90;;;;;;4993541;28;20196;-62
2022/01/04 03:43:25;;;;;;;2.23;1.50;;;12.00;99.90;;;;;;4993879;28;20170;-63
2022/01/04 03:45:51;;;;;;;2.93;1.80;;;12.00;99.90;;;;;;4993944;28;20169;-62
2022/01/04 03:48:18;;;;;;;3.00;1.70;;;12.00;99.90;;;;;;4994145;28;20173;-63
2022/01/04 03:50:44;;;;;;;2.50;1.53;;;12.00;99.90;;;;;;4993522;28;20241;-62
2022/01/04 03:53:09;;;;;;;2.70;1.50;;;12.20;99.90;;;;;;4993587;28;20901;-63
2022/01/04 03:55:35;;;;;;;2.20;1.80;;;12.10;99.90;;;;;;4993766;28;20161;-63
2022/01/04 03:58:01;;;;;;;2.07;1.83;;;12.10;99.90;;;;;;4993585;28;20169;-62
2022/01/04 04:00:26;;;;;;;2.33;1.63;;;12.20;99.90;;;;;;4993273;28;20202;-62
2022/01/04 04:02:52;;;;;;;1.70;1.27;;;12.20;99.90;;;;;;4993406;28;20174;-63
2022/01/04 04:05:18;;;;;;;1.67;1.13;;;12.20;99.90;;;;;;4993475;28;20231;-63
2022/01/04 04:07:43;;;;;;;2.10;1.30;;;12.00;99.90;;;;;;4993556;28;20168;-62
2022/01/04 04:10:09;;;;;;;1.70;1.60;;;12.00;99.90;;;;;;4993519;28;20188;-63
2022/01/04 04:12:35;;;;;;;1.77;1.30;;;12.00;99.90;;;;;;4993573;28;20253;-63
2022/01/04 04:15:04;;;;;;;1.57;1.37;;;12.00;99.90;;;;;;4993548;28;20400;-63
2022/01/04 04:17:33;;;;;;;1.73;1.30;;;12.30;99.90;;;;;;4993757;28;20449;-63
2022/01/04 04:19:58;;;;;;;1.57;1.20;;;12.20;99.90;;;;;;4993274;28;20468;-62
2022/01/04 04:22:24;;;;;;;1.70;1.00;;;12.10;99.90;;;;;;4993575;28;20579;-62
2022/01/04 04:24:50;;;;;;;3.53;1.30;;;12.00;99.90;;;;;;4995985;28;20252;-62
2022/01/04 04:27:15;;;;;;;3.10;1.27;;;12.10;99.90;;;;;;4996909;28;20264;-63
2022/01/04 04:29:41;;;;;;;1.47;1.20;;;12.20;99.90;;;;;;4996770;28;20180;-62
2022/01/04 04:32:07;;;;;;;2.07;1.20;;;12.20;99.90;;;;;;4996566;28;20212;-62
2022/01/04 04:34:33;;;;;;;1.13;1.03;;;12.00;99.90;;;;;;4997178;28;20171;-62
2022/01/04 04:36:59;;;;;;;1.63;1.10;;;12.10;99.90;;;;;;4996632;28;20400;-61
2022/01/04 04:39:25;;;;;;;1.20;1.00;;;12.10;99.90;;;;;;4996693;28;20443;-62
2022/01/04 04:41:52;;;;;;;1.73;1.40;;;12.10;99.90;;;;;;5035184;23;20520;-62
2022/01/04 04:44:18;;;;;;;1.90;1.27;;;12.00;99.90;;;;;;5016224;28;20160;-62
2022/01/04 04:46:43;;;;;;;1.87;1.57;;;12.00;99.90;;;;;;5015989;28;20819;-62
2022/01/04 04:49:09;;;;;;;1.80;1.13;;;12.10;99.90;;;;;;5015820;28;20199;-63
2022/01/04 04:51:34;;;;;;;1.83;1.50;;;12.00;99.90;;;;;;5015621;28;20296;-63
2022/01/04 04:54:00;;;;;;;4.10;1.97;;;12.10;99.90;;;;;;5016374;28;20168;-63
2022/01/04 04:56:26;;;;;;;1.80;1.17;;;12.00;99.90;;;;;;5016038;28;20206;-63
2022/01/04 04:58:51;;;;;;;1.93;1.43;;;12.10;99.90;;;;;;5015697;28;20165;-63
2022/01/04 05:01:17;;;;;;;1.37;1.27;;;12.00;99.90;;;;;;5015826;28;20200;-63
2022/01/04 05:03:42;;;;;;;2.00;1.80;;;12.00;99.90;;;;;;5015999;28;20172;-63
2022/01/04 05:06:08;;;;;;;1.50;1.40;;;12.00;99.90;;;;;;5015894;28;20685;-63
2022/01/04 05:08:34;;;;;;;1.43;1.30;;;11.90;99.90;;;;;;5015870;28;20195;-63
2022/01/04 05:11:01;;;;;;;1.60;0.90;;;12.00;99.90;;;;;;5015729;28;20211;-63
2022/01/04 05:13:27;;;;;;;1.57;1.30;;;12.10;99.90;;;;;;5015657;28;20167;-63
2022/01/04 05:15:53;;;;;;;1.80;1.20;;;12.10;99.90;;;;;;5015711;28;20409;-63
2022/01/04 05:18:19;;;;;;;1.37;1.27;;;12.10;99.90;;;;;;5016268;28;20687;-63
2022/01/04 05:20:45;;;;;;;1.30;1.20;;;12.10;99.90;;;;;;5013981;28;20510;-63
2022/01/04 05:23:10;;;;;;;1.70;1.30;;;12.20;99.90;;;;;;5015339;28;20176;-63
2022/01/04 05:25:36;;;;;;;1.80;1.40;;;12.10;99.90;;;;;;5015438;28;20171;-62
2022/01/04 05:28:01;;;;;;;1.40;1.30;;;12.10;99.90;;;;;;5015488;28;20172;-62
2022/01/04 05:30:27;;;;;;;1.40;1.27;;;12.10;99.90;;;;;;5015071;28;20683;-58
2022/01/04 05:32:53;;;;;;;2.33;1.57;;;12.00;99.90;;;;;;5016166;28;20179;-62
2022/01/04 05:35:18;;;;;;;2.17;1.00;;;12.00;99.90;;;;;;5014878;28;20596;-62
2022/01/04 05:37:44;;;;;;;1.53;1.40;;;12.00;99.90;;;;;;5015259;28;20182;-62
2022/01/04 05:40:10;;;;;;;1.20;1.07;;;12.00;99.90;;;;;;5015263;28;20174;-62
2022/01/04 05:42:36;;;;;;;1.40;1.30;;;11.90;99.90;;;;;;5014931;28;20537;-62
2022/01/04 05:45:02;;;;;;;4.60;1.50;;;11.90;99.90;;;;;;5014784;28;20398;-63
2022/01/04 05:47:27;;;;;;;1.63;1.37;;;12.00;99.90;;;;;;5015134;28;20166;-62
2022/01/04 05:49:53;;;;;;;1.67;1.30;;;12.00;99.90;;;;;;5014772;28;20736;-62
2022/01/04 05:52:19;;;;;;;1.30;1.20;;;12.00;99.90;;;;;;5014924;28;20201;-62
2022/01/04 05:54:46;;;;;;;1.43;1.10;;;11.90;99.90;;;;;;5014819;28;20535;-61
2022/01/04 05:57:12;;;;;;;1.30;1.20;;;11.90;99.90;;;;;;5014997;28;20537;-62
2022/01/04 05:59:37;;;;;;;1.50;1.17;;;12.00;99.90;;;;;;5014580;28;20410;-62
2022/01/04 06:02:03;;;;;;;1.70;1.60;;;12.00;99.90;;;;;;5014475;28;20213;-63
2022/01/04 06:04:29;;;;;;;2.60;1.40;;;11.90;99.90;;;;;;5014862;28;20173;-62
2022/01/04 06:06:54;;;;;;;1.63;1.00;;;12.10;99.90;;;;;;5014736;28;20418;-62
2022/01/04 06:09:26;;;;;;;1.10;0.97;;;12.00;99.90;;;;;;5014453;28;20654;-63
2022/01/04 06:17:04;;;;;;;1.57;1.47;;;11.80;99.90;;;;;;5014558;28;20212;-62
2022/01/04 06:19:29;;;;;;;1.57;1.30;;;11.90;99.90;;;;;;5014558;28;20530;-62
2022/01/04 06:21:55;;;;;;;2.17;1.50;;;11.90;99.90;;;;;;5013948;28;20434;-62
2022/01/04 06:24:20;;;;;;;1.20;1.10;;;12.00;99.90;;;;;;5014530;28;20167;-62
2022/01/04 06:26:46;;;;;;;2.07;1.30;;;12.00;99.90;;;;;;5014126;28;20168;-63
2022/01/04 06:29:14;;;;;;;1.60;1.20;;;12.00;99.90;;;;;;5014318;28;20257;-62
2022/01/04 06:31:40;;;;;;;3.27;1.47;;;12.00;99.90;;;;;;5014154;28;20204;-60
2022/01/04 06:34:06;;;;;;;1.70;1.60;;;12.10;99.90;;;;;;5014227;28;20410;-62
2022/01/04 06:36:32;;;;;;;1.63;1.10;;;12.10;99.90;;;;;;5014204;28;20506;-62
2022/01/04 06:38:58;;;;;;;1.67;1.50;;;12.00;99.90;;;;;;5013947;28;20172;-62
2022/01/04 06:41:23;;;;;;;1.67;1.27;;;12.00;99.90;;;;;;5013696;28;20441;-63
2022/01/04 06:43:49;;;;;;;1.30;1.20;;;12.00;99.90;;;;;;5013855;28;20283;-61
2022/01/04 06:46:15;;;;;;;2.07;1.13;;;12.00;99.90;;;;;;5013750;28;20173;-63
2022/01/04 06:48:41;;;;;;;3.97;1.10;;;12.10;99.90;;;;;;5013397;28;20176;-63
2022/01/04 06:51:07;;;;;;;1.23;0.90;;;12.20;99.90;;;;;;5013554;28;20230;-63
2022/01/04 06:53:33;;;;;;;1.77;1.40;;;12.20;99.90;;;;;;5013640;28;20544;-63
2022/01/04 06:55:58;;;;;;;1.37;1.10;;;12.00;99.90;;;;;;5013586;28;20826;-63
2022/01/04 06:58:24;;;;;;;1.27;1.00;;;12.10;99.90;;;;;;5013495;28;20538;-63
2022/01/04 07:00:50;;;;;;;3.63;1.20;;;12.00;99.90;;;;;;5013831;28;20199;-60
2022/01/04 07:03:15;;;;;;;1.67;1.30;;;12.00;99.90;;;;;;5013614;28;20181;-63
2022/01/04 07:05:42;;;;;;;1.20;1.10;;;12.00;99.90;;;;;;5013670;28;20177;-63
2022/01/04 07:08:07;;;;;;;1.20;1.10;;;12.00;99.90;;;;;;5013898;28;20178;-64
2022/01/04 07:10:33;;;;;;;2.33;1.40;;;12.10;99.90;;;;;;5013324;28;20538;-63
2022/01/04 07:12:58;;;;;;;1.17;1.00;;;12.20;99.90;;;;;;5013459;28;20175;-63
2022/01/04 07:15:24;;;;;;;1.50;1.20;;;12.20;99.90;;;;;;5013838;28;20206;-64
2022/01/04 07:17:50;;;;;;;1.20;1.10;;;12.10;99.90;;;;;;5013551;28;20210;-62
2022/01/04 07:20:15;;;;;;;1.40;0.90;;;12.00;99.90;;;;;;5013195;28;20665;-62
2022/01/04 07:22:41;;;;;;;1.67;0.80;;;12.00;99.90;;;;;;5013285;28;20708;-62
2022/01/04 07:25:07;;;;;;;1.20;1.00;;;12.00;99.90;;;;;;5013298;28;20291;-63
2022/01/04 07:27:33;;;;;;;1.30;1.10;;;12.10;99.90;;;;;;5013309;28;20160;-63
2022/01/04 07:29:59;;;;;;;1.80;1.20;;;12.10;99.90;;;;;;5013472;28;20410;-62
2022/01/04 07:32:24;;;;;;;1.20;1.10;;;12.00;99.90;;;;;;5013140;28;20207;-63
2022/01/04 07:34:50;;;;;;;1.40;1.00;;;12.00;99.90;;;;;;5013181;28;20787;-62
2022/01/04 07:37:16;;;;;;;1.30;1.03;;;12.10;99.90;;;;;;5013650;28;20172;-62
2022/01/04 07:39:42;;;;;;;3.00;1.20;;;12.20;99.90;;;;;;5013450;28;20286;-62
2022/01/04 07:42:07;;;;;;;2.73;1.20;;;12.20;99.90;;;;;;5012984;28;20213;-62
2022/01/04 07:44:33;;;;;;;1.60;1.50;;;12.20;99.90;;;;;;5013346;28;20218;-61
2022/01/04 07:46:59;;;;;;;1.90;1.00;;;12.30;99.90;;;;;;5012814;28;20183;-62
2022/01/04 07:49:25;;;;;;;1.10;1.00;;;12.20;99.90;;;;;;5013440;28;20182;-62
2022/01/04 07:51:51;;;;;;;1.30;1.20;;;12.30;99.90;;;;;;5013112;28;20448;-62
2022/01/04 07:54:16;;;;;;;3.00;1.77;;;12.40;99.90;;;;;;5013182;28;20600;-62
2022/01/04 07:56:42;;;;;;;1.27;1.07;;;12.40;99.90;;;;;;5013317;28;20892;-62
2022/01/04 07:59:07;;;;;;;1.23;0.97;;;12.40;99.90;;;;;;5014713;28;20184;-62
2022/01/04 08:01:33;;;;;;;1.30;1.10;;;12.40;99.90;;;;;;5017059;28;20235;-61
2022/01/04 08:04:00;;;;;;;1.30;0.90;;;12.50;99.90;;;;;;5017329;28;20222;-62
2022/01/04 08:06:27;;;;;;;1.40;0.93;;;12.60;99.90;;;;;;5016991;28;20248;-62
2022/01/04 08:08:53;;;;;;;1.33;1.00;;;12.70;99.90;;;;;;5016954;28;20413;-62
2022/01/04 08:11:19;;;;;;;1.07;0.97;;;12.70;99.90;;;;;;5016558;28;20806;-62
2022/01/04 08:13:45;;;;;;;2.43;0.90;;;12.70;99.90;;;;;;5016538;28;20168;-63
2022/01/04 08:16:13;;;;;;;1.10;1.00;;;12.80;99.90;;;;;;5016453;28;20403;-62
2022/01/04 08:18:39;;;;;;;1.67;1.00;;;12.90;99.90;;;;;;5016701;28;20184;-62
2022/01/04 08:21:05;;;;;;;1.03;0.83;;;12.90;99.90;;;;;;5016490;28;20430;-62
2022/01/04 08:23:31;;;;;;;1.30;1.00;;;13.00;99.90;;;;;;5016647;28;20543;-62
2022/01/04 08:25:57;;;;;;;1.70;0.80;;;13.00;99.90;;;;;;5016350;28;20410;-63
2022/01/04 08:28:22;;;;;;;5.27;1.20;;;13.10;99.90;;;;;;5016774;28;20172;-63
2022/01/04 08:30:48;;;;;;;4.10;1.10;;;13.00;99.90;;;;;;5016223;28;20246;-63
2022/01/04 08:33:14;;;;;;;1.80;1.00;;;13.10;99.90;;;;;;5016190;28;20165;-62
2022/01/04 08:35:40;;;;;;;2.27;1.50;;;13.20;99.90;;;;;;5016582;28;20488;-61
2022/01/04 08:38:07;;;;;;;1.40;1.20;;;13.10;99.90;;;;;;5016231;28;20388;-61
2022/01/04 08:40:34;;;;;;;1.80;1.07;;;13.20;99.90;;;;;;5015907;28;20489;-62
2022/01/04 08:42:59;;;;;;;1.30;1.20;;;13.10;99.90;;;;;;5016028;28;20912;-62
2022/01/04 08:45:25;;;;;;;1.00;0.90;;;13.20;99.90;;;;;;5016421;28;20474;-62
2022/01/04 08:47:51;;;;;;;1.40;1.00;;;13.20;99.90;;;;;;5015889;28;20179;-63
2022/01/04 08:50:19;;;;;;;1.47;1.13;;;13.30;99.90;;;;;;5015848;28;20645;-62
2022/01/04 08:52:45;;;;;;;1.93;1.30;;;13.30;99.90;;;;;;5016158;28;20402;-62
2022/01/04 08:55:11;;;;;;;2.30;1.23;;;13.40;99.90;;;;;;5016263;28;20473;-62
2022/01/04 08:57:38;;;;;;;1.40;0.90;;;13.40;99.90;;;;;;5015798;28;20656;-64
2022/01/04 09:00:06;;;;;;;1.23;1.13;;;13.30;99.90;;;;;;5016162;28;20896;-62
2022/01/04 09:02:33;;;;;;;1.03;0.93;;;13.40;99.90;;;;;;5016110;28;20405;-63
2022/01/04 09:05:00;;;;;;;1.40;1.20;;;13.40;99.90;;;;;;5015949;28;20829;-62
2022/01/04 09:07:26;;;;;;;1.23;0.93;;;13.40;99.90;;;;;;5015741;28;20502;-61
2022/01/04 09:09:52;;;;;;;2.30;1.20;;;13.50;99.90;;;;;;5015138;28;20438;-62
2022/01/04 09:12:20;;;;;;;1.63;1.00;;;13.60;99.90;;;;;;5015581;28;20452;-62
2022/01/04 09:15:05;;;;;;;3.37;1.10;;;13.60;99.90;;;;;;5015379;28;21010;-61
2022/01/04 09:20:18;;;;;;;3.47;1.60;;;13.60;99.90;;;;;;5004538;28;20844;-62
2022/01/04 09:22:44;;;;;;;1.40;1.30;;;13.60;99.90;;;;;;5015512;28;20395;-62
2022/01/04 09:25:10;;;;;;;1.97;1.50;;;13.60;99.90;;;;;;5015340;28;20404;-62
2022/01/04 09:27:36;;;;;;;1.37;1.27;;;13.60;99.90;;;;;;5015232;28;20180;-63
2022/01/04 09:30:04;;;;;;;1.33;1.23;;;13.50;99.90;;;;;;5015224;28;20760;-61
2022/01/04 09:32:33;;;;;;;1.67;1.40;;;13.40;99.90;;;;;;5014949;28;20529;-63
2022/01/04 09:35:00;;;;;;;3.80;1.70;;;13.50;99.90;;;;;;5015019;28;20411;-62
2022/01/04 09:37:26;;;;;;;2.10;1.50;;;13.60;99.90;;;;;;5015174;28;20417;-62
2022/01/04 09:39:52;;;;;;;3.47;1.10;;;13.50;99.90;;;;;;5014843;28;20405;-63
2022/01/04 09:42:20;;;;;;;2.00;1.17;;;13.40;99.90;;;;;;5014854;28;20439;-62
2022/01/04 09:44:48;;;;;;;1.40;1.20;;;13.40;99.90;;;;;;5015267;28;20466;-62
2022/01/04 09:47:13;;;;;;;1.50;1.27;;;13.50;99.90;;;;;;5015185;28;20412;-62
2022/01/04 09:49:39;;;;;;;1.07;0.97;;;13.40;99.90;;;;;;5015329;28;20416;-62
2022/01/04 09:52:08;;;;;;;1.60;1.23;;;13.30;99.90;;;;;;5014586;28;20279;-62
2022/01/04 09:54:37;;;;;;;1.50;0.97;;;13.30;99.90;;;;;;5015075;28;20183;-63
2022/01/04 09:57:03;;;;;;;2.03;1.20;;;13.30;99.90;;;;;;5014696;28;20403;-62
2022/01/04 09:59:28;;;;;;;2.57;1.00;;;13.30;99.90;;;;;;5014726;28;20773;-57
2022/01/04 10:02:01;;;;;;;1.83;1.07;;;13.20;99.90;;;;;;5014859;28;20196;-62
2022/01/04 10:04:27;;;;;;;1.23;1.13;;;13.30;99.90;;;;;;5014884;28;20163;-62
2022/01/04 10:07:02;;;;;;;1.57;1.13;;;13.40;99.90;;;;;;5014424;28;20400;-63
2022/01/04 10:09:34;;;;;;;2.10;1.47;;;13.40;99.90;;;;;;5013061;28;20171;-62
2022/01/04 10:12:00;;;;;;;1.60;1.50;;;13.40;99.90;;;;;;5014617;28;20787;-62
2022/01/04 10:14:29;;;;;;;1.80;1.27;;;13.40;99.90;;;;;;5014261;28;20410;-63
2022/01/04 10:17:00;;;;;;;3.53;1.33;;;13.50;99.90;;;;;;5014492;28;20180;-63
2022/01/04 10:19:39;;;;;;;2.20;1.40;;;13.50;99.90;;;;;;5014508;28;20408;-63
2022/01/04 10:22:32;;;;;;;2.03;1.70;;;13.50;99.90;;;;;;5014300;28;20423;-63
2022/01/04 10:25:01;;;;;;;1.47;1.37;;;13.30;99.90;;;;;;5014505;28;20461;-63
2022/01/04 10:27:30;;;;;;;1.73;1.43;;;13.30;99.90;;;;;;5014472;28;20409;-60
2022/01/04 10:30:30;;;;;;;1.73;1.20;;;13.40;99.90;;;;;;5014327;28;20498;-63
2022/01/04 10:33:08;;;;;;;1.90;1.43;;;13.50;99.90;;;;;;5013972;28;20420;-61
2022/01/04 10:35:46;;;;;;;2.40;1.43;;;13.60;99.90;;;;;;5014233;28;20416;-62
2022/01/04 10:38:19;;;;;;;1.40;1.30;;;13.60;99.90;;;;;;5014378;28;20383;-62
2022/01/04 10:40:50;;;;;;;1.77;1.27;;;13.70;99.90;;;;;;5035442;23;20475;-62
2022/01/04 10:43:19;;;;;;;2.87;1.73;;;13.70;99.90;;;;;;4994607;28;20403;-63
2022/01/04 10:45:46;;;;;;;1.67;1.57;;;13.80;99.90;;;;;;4994415;28;20762;-63
2022/01/04 10:48:16;;;;;;;1.30;1.20;;;13.80;99.90;;;;;;4994472;28;20401;-63
2022/01/04 10:50:43;;;;;;;2.00;1.20;;;14.10;99.90;;;;;;4994054;28;20966;-62
2022/01/04 10:53:24;;;;;;;3.20;1.70;;;14.00;99.90;;;;;;4994428;28;20906;-63
2022/01/04 10:55:54;;;;;;;1.90;1.30;;;13.80;99.90;;;;;;4994223;28;20488;-61
2022/01/04 10:58:29;;;;;;;2.00;1.50;;;13.90;99.90;;;;;;4994336;28;20431;-63
2022/01/04 11:01:05;;;;;;;2.50;1.70;;;13.80;99.90;;;;;;4992825;28;20499;-62
2022/01/04 11:03:34;;;;;;;2.27;1.80;;;13.90;99.90;;;;;;4994290;28;20399;-63
2022/01/04 11:06:05;;;;;;;1.97;1.30;;;13.80;99.90;;;;;;4994096;28;20442;-63
2022/01/04 11:08:31;;;;;;;2.43;1.70;;;13.90;99.90;;;;;;4993924;28;20452;-63
2022/01/04 11:10:57;;;;;;;2.40;1.67;;;13.90;99.90;;;;;;4993870;28;20457;-63
2022/01/04 11:13:23;;;;;;;2.60;1.80;;;13.90;99.90;;;;;;4993815;28;20205;-63
2022/01/04 11:15:50;;;;;;;1.63;1.53;;;13.90;99.90;;;;;;4993859;28;20457;-63
2022/01/04 11:18:17;;;;;;;3.17;1.43;;;14.00;99.90;;;;;;4993736;28;20433;-63
2022/01/04 11:20:43;;;;;;;3.30;1.80;;;14.00;99.90;;;;;;4993897;28;20907;-63
2022/01/04 11:23:09;;;;;;;2.37;1.90;;;14.00;99.90;;;;;;4993999;28;20550;-63
2022/01/04 11:25:36;;;;;;;1.50;1.40;;;14.10;99.90;;;;;;4993909;28;20417;-63
2022/01/04 11:28:03;;;;;;;1.80;1.30;;;14.10;99.90;;;;;;4993718;28;20468;-63
2022/01/04 11:30:53;;;;;;;5.13;1.30;;;14.20;99.90;;;;;;4993582;28;20895;-64
2022/01/04 11:33:28;;;;;;;1.90;1.60;;;13.90;99.90;;;;;;4994445;28;20427;-63
2022/01/04 11:35:55;;;;;;;2.83;2.00;;;13.90;99.90;;;;;;4997802;28;20372;-61
2022/01/04 11:38:36;;;;;;;4.20;1.50;;;13.80;99.90;;;;;;4998048;28;20405;-61
2022/01/04 11:41:03;;;;;;;2.17;1.50;;;13.70;99.90;;;;;;4997551;28;20435;-61
2022/01/04 11:43:38;;;;;;;2.10;1.80;;;13.80;99.90;;;;;;4998086;28;20971;-62
2022/01/04 11:46:05;;;;;;;1.83;1.70;;;13.80;99.90;;;;;;4998180;28;20865;-62
2022/01/04 11:48:30;;;;;;;1.97;1.23;;;13.60;99.90;;;;;;4997701;28;20406;-62
2022/01/04 11:51:23;;;;;;;1.80;1.50;;;13.70;99.90;;;;;;4997609;28;20455;-62
2022/01/04 11:54:14;;;;;;;3.17;2.00;;;13.80;99.90;;;;;;4991713;28;20207;-59
2022/01/04 11:56:59;;;;;;;2.37;2.10;;;13.60;99.90;;;;;;4997491;28;20926;-61
2022/01/04 11:59:33;;;;;;;1.67;1.57;;;13.50;99.90;;;;;;4997453;28;20411;-63
2022/01/04 12:02:31;;;;;;;3.33;1.90;;;13.60;99.90;;;;;;4997302;28;20518;-63
2022/01/04 12:05:01;;;;;;;2.20;1.70;;;13.70;99.90;;;;;;4997691;28;20746;-63
2022/01/04 12:07:42;;;;;;;2.10;1.90;;;13.70;99.90;;;;;;4997507;28;20479;-62
2022/01/04 12:10:32;;;;;;;2.40;2.17;;;13.70;99.90;;;;;;4997309;28;20401;-63
2022/01/04 12:13:11;;;;;;;3.13;1.93;;;13.70;99.90;;;;;;4992171;28;20467;-63
2022/01/04 12:15:36;;;;;;;4.93;2.20;;;13.70;99.90;;;;;;4997195;28;20403;-63
2022/01/04 12:18:23;;;;;;;3.10;2.07;;;13.60;99.90;;;;;;4997478;28;20426;-63
2022/01/04 12:20:54;;;;;;;2.90;2.50;;;13.80;99.90;;;;;;4997023;28;20188;-63
2022/01/04 12:23:37;;;;;;;3.70;2.40;;;13.70;99.90;;;;;;4996995;28;20496;-63
2022/01/04 12:26:03;;;;;;;1.70;1.60;;;13.70;99.90;;;;;;4996930;28;20388;-63
2022/01/04 12:28:40;;;;;;;2.57;2.00;;;13.80;99.90;;;;;;4997242;28;20411;-63
2022/01/04 12:31:20;;;;;;;2.17;1.97;;;13.70;99.90;;;;;;4996895;28;20197;-63
2022/01/04 12:33:51;;;;;;;2.30;1.90;;;13.80;99.90;;;;;;4997363;28;20385;-60
2022/01/04 12:36:26;;;;;;;3.80;2.03;;;13.60;99.90;;;;;;4996732;28;20405;-63
2022/01/04 12:38:54;;;;;;;5.13;2.37;;;13.60;99.90;;;;;;4996671;28;20417;-63
2022/01/04 12:41:22;;;;;;;5.43;1.80;;;13.60;99.90;;;;;;4996448;28;20498;-63
2022/01/04 12:43:50;;;;;;;5.00;1.90;;;13.60;99.90;;;;;;4996322;28;20415;-63
2022/01/04 12:46:27;;;;;;;2.60;2.13;;;13.60;99.90;;;;;;4995327;28;20920;-63
2022/01/04 12:48:59;;;;;;;3.23;2.00;;;13.50;99.90;;;;;;4996613;28;20416;-63
2022/01/04 12:51:39;;;;;;;2.30;1.83;;;13.40;99.90;;;;;;4996464;28;20508;-63
2022/01/04 12:54:07;;;;;;;3.20;1.77;;;13.60;99.90;;;;;;4996573;28;20871;-63
2022/01/04 12:56:40;;;;;;;2.30;1.73;;;13.60;99.90;;;;;;4996197;28;20480;-63
2022/01/04 12:59:07;;;;;;;2.30;1.83;;;13.60;99.90;;;;;;4996871;28;20727;-63
2022/01/04 13:01:33;;;;;;;3.50;2.07;;;13.60;99.90;;;;;;4996183;28;20913;-63
2022/01/04 13:03:59;;;;;;;2.10;1.50;;;13.50;99.90;;;;;;4996178;28;20431;-64